sensor_id;sensor_type;location;lat;lon;timestamp;P1;durP1;ratioP1;P2;durP2;ratioP2
57752;SDS011;43583;53.132;6.574;2023-11-22T00:01:12;5.10;;;2.63;;
57752;SDS011;43583;53.132;6.574;2023-11-22T00:03:38;11.00;;;4.00;;
57752;SDS011;43583;53.132;6.574;2023-11-22T00:06:04;10.05;;;5.20;;
57752;SDS011;43583;53.132;6.574;2023-11-22T00:08:30;11.63;;;5.57;;
57752;SDS011;43583;53.132;6.574;2023-11-22T00:10:56;9.68;;;4.80;;
57752;SDS011;43583;53.132;6.574;2023-11-22T00:13:21;7.95;;;3.90;;
57752;SDS011;43583;53.132;6.574;2023-11-22T00:15:47;6.97;;;3.65;;
57752;SDS011;43583;53.132;6.574;2023-11-22T00:18:15;9.35;;;3.90;;
57752;SDS011;43583;53.132;6.574;2023-11-22T00:20:41;7.20;;;3.88;;
57752;SDS011;43583;53.132;6.574;2023-11-22T00:23:06;10.65;;;4.65;;
57752;SDS011;43583;53.132;6.574;2023-11-22T00:25:32;10.60;;;4.93;;
57752;SDS011;43583;53.132;6.574;2023-11-22T00:27:58;7.70;;;3.33;;
57752;SDS011;43583;53.132;6.574;2023-11-22T00:30:24;8.23;;;3.55;;
57752;SDS011;43583;53.132;6.574;2023-11-22T00:32:49;7.22;;;3.28;;
57752;SDS011;43583;53.132;6.574;2023-11-22T00:35:16;6.32;;;3.17;;
57752;SDS011;43583;53.132;6.574;2023-11-22T00:37:42;7.45;;;3.47;;
57752;SDS011;43583;53.132;6.574;2023-11-22T00:40:07;5.43;;;3.75;;
57752;SDS011;43583;53.132;6.574;2023-11-22T00:42:37;8.63;;;4.63;;
57752;SDS011;43583;53.132;6.574;2023-11-22T00:45:04;6.95;;;3.47;;
57752;SDS011;43583;53.132;6.574;2023-11-22T00:47:34;7.60;;;3.65;;
57752;SDS011;43583;53.132;6.574;2023-11-22T00:50:00;5.88;;;3.42;;
57752;SDS011;43583;53.132;6.574;2023-11-22T00:52:26;8.95;;;4.28;;
57752;SDS011;43583;53.132;6.574;2023-11-22T00:54:52;9.82;;;3.78;;
57752;SDS011;43583;53.132;6.574;2023-11-22T00:57:18;8.13;;;3.22;;
57752;SDS011;43583;53.132;6.574;2023-11-22T00:59:44;7.22;;;3.95;;
57752;SDS011;43583;53.132;6.574;2023-11-22T01:02:09;8.98;;;2.92;;
57752;SDS011;43583;53.132;6.574;2023-11-22T01:04:35;4.95;;;2.67;;
57752;SDS011;43583;53.132;6.574;2023-11-22T01:07:02;5.30;;;3.20;;
57752;SDS011;43583;53.132;6.574;2023-11-22T01:09:29;5.93;;;2.90;;
57752;SDS011;43583;53.132;6.574;2023-11-22T01:11:57;9.43;;;3.55;;
57752;SDS011;43583;53.132;6.574;2023-11-22T01:14:22;6.38;;;3.10;;
57752;SDS011;43583;53.132;6.574;2023-11-22T01:16:49;6.65;;;3.08;;
57752;SDS011;43583;53.132;6.574;2023-11-22T01:19:14;5.97;;;2.67;;
57752;SDS011;43583;53.132;6.574;2023-11-22T01:21:40;5.03;;;3.22;;
57752;SDS011;43583;53.132;6.574;2023-11-22T01:24:06;4.95;;;2.75;;
57752;SDS011;43583;53.132;6.574;2023-11-22T01:26:33;5.68;;;3.03;;
57752;SDS011;43583;53.132;6.574;2023-11-22T01:28:59;8.13;;;3.20;;
57752;SDS011;43583;53.132;6.574;2023-11-22T01:31:25;5.82;;;3.45;;
57752;SDS011;43583;53.132;6.574;2023-11-22T01:33:52;5.40;;;2.83;;
57752;SDS011;43583;53.132;6.574;2023-11-22T01:36:18;6.43;;;3.33;;
57752;SDS011;43583;53.132;6.574;2023-11-22T01:38:44;5.25;;;2.78;;
57752;SDS011;43583;53.132;6.574;2023-11-22T01:41:11;6.45;;;2.85;;
57752;SDS011;43583;53.132;6.574;2023-11-22T01:43:38;6.28;;;2.88;;
57752;SDS011;43583;53.132;6.574;2023-11-22T01:46:07;5.68;;;3.35;;
57752;SDS011;43583;53.132;6.574;2023-11-22T01:48:34;7.78;;;3.08;;
57752;SDS011;43583;53.132;6.574;2023-11-22T01:51:01;7.72;;;3.05;;
57752;SDS011;43583;53.132;6.574;2023-11-22T01:53:28;5.22;;;2.30;;
57752;SDS011;43583;53.132;6.574;2023-11-22T01:55:54;7.30;;;3.45;;
57752;SDS011;43583;53.132;6.574;2023-11-22T01:58:21;6.07;;;3.10;;
57752;SDS011;43583;53.132;6.574;2023-11-22T02:00:51;6.15;;;2.85;;
57752;SDS011;43583;53.132;6.574;2023-11-22T02:03:17;4.70;;;2.25;;
57752;SDS011;43583;53.132;6.574;2023-11-22T02:05:44;5.53;;;2.33;;
57752;SDS011;43583;53.132;6.574;2023-11-22T02:08:10;6.65;;;2.42;;
57752;SDS011;43583;53.132;6.574;2023-11-22T02:10:37;6.53;;;3.00;;
57752;SDS011;43583;53.132;6.574;2023-11-22T02:13:04;6.15;;;3.45;;
57752;SDS011;43583;53.132;6.574;2023-11-22T02:15:36;7.63;;;3.00;;
57752;SDS011;43583;53.132;6.574;2023-11-22T02:18:03;10.40;;;3.78;;
57752;SDS011;43583;53.132;6.574;2023-11-22T02:20:30;8.30;;;3.35;;
57752;SDS011;43583;53.132;6.574;2023-11-22T02:22:56;8.32;;;3.95;;
57752;SDS011;43583;53.132;6.574;2023-11-22T02:25:22;7.00;;;3.47;;
57752;SDS011;43583;53.132;6.574;2023-11-22T02:27:48;11.98;;;4.00;;
57752;SDS011;43583;53.132;6.574;2023-11-22T02:30:13;6.95;;;2.88;;
57752;SDS011;43583;53.132;6.574;2023-11-22T02:32:40;8.00;;;3.08;;
57752;SDS011;43583;53.132;6.574;2023-11-22T02:35:06;6.63;;;2.88;;
57752;SDS011;43583;53.132;6.574;2023-11-22T02:37:33;6.38;;;2.47;;
57752;SDS011;43583;53.132;6.574;2023-11-22T02:40:02;8.88;;;3.17;;
57752;SDS011;43583;53.132;6.574;2023-11-22T02:42:41;9.82;;;3.42;;
57752;SDS011;43583;53.132;6.574;2023-11-22T02:45:06;6.70;;;2.00;;
57752;SDS011;43583;53.132;6.574;2023-11-22T02:47:32;7.68;;;3.05;;
57752;SDS011;43583;53.132;6.574;2023-11-22T02:50:01;4.82;;;2.60;;
57752;SDS011;43583;53.132;6.574;2023-11-22T02:52:27;7.88;;;2.50;;
57752;SDS011;43583;53.132;6.574;2023-11-22T02:54:53;5.65;;;2.13;;
57752;SDS011;43583;53.132;6.574;2023-11-22T02:57:18;8.15;;;3.42;;
57752;SDS011;43583;53.132;6.574;2023-11-22T02:59:45;7.57;;;3.33;;
57752;SDS011;43583;53.132;6.574;2023-11-22T03:02:10;5.47;;;3.17;;
57752;SDS011;43583;53.132;6.574;2023-11-22T03:04:36;8.73;;;3.33;;
57752;SDS011;43583;53.132;6.574;2023-11-22T03:07:03;12.25;;;3.33;;
57752;SDS011;43583;53.132;6.574;2023-11-22T03:09:31;8.85;;;3.22;;
57752;SDS011;43583;53.132;6.574;2023-11-22T03:11:57;7.03;;;3.85;;
57752;SDS011;43583;53.132;6.574;2023-11-22T03:14:22;4.43;;;2.22;;
57752;SDS011;43583;53.132;6.574;2023-11-22T03:16:48;6.95;;;2.95;;
57752;SDS011;43583;53.132;6.574;2023-11-22T03:19:14;8.30;;;2.83;;
57752;SDS011;43583;53.132;6.574;2023-11-22T03:21:40;4.53;;;1.85;;
57752;SDS011;43583;53.132;6.574;2023-11-22T03:24:06;6.20;;;2.53;;
57752;SDS011;43583;53.132;6.574;2023-11-22T03:26:33;7.80;;;2.65;;
57752;SDS011;43583;53.132;6.574;2023-11-22T03:28:59;4.80;;;2.35;;
57752;SDS011;43583;53.132;6.574;2023-11-22T03:31:25;6.35;;;2.63;;
57752;SDS011;43583;53.132;6.574;2023-11-22T03:33:51;5.40;;;2.65;;
57752;SDS011;43583;53.132;6.574;2023-11-22T03:36:17;5.75;;;2.92;;
57752;SDS011;43583;53.132;6.574;2023-11-22T03:38:43;6.72;;;2.88;;
57752;SDS011;43583;53.132;6.574;2023-11-22T03:41:09;5.70;;;2.47;;
57752;SDS011;43583;53.132;6.574;2023-11-22T03:43:35;9.48;;;3.17;;
57752;SDS011;43583;53.132;6.574;2023-11-22T03:46:01;5.22;;;2.05;;
57752;SDS011;43583;53.132;6.574;2023-11-22T03:48:27;8.77;;;3.13;;
57752;SDS011;43583;53.132;6.574;2023-11-22T03:50:53;9.07;;;3.47;;
57752;SDS011;43583;53.132;6.574;2023-11-22T03:53:19;9.55;;;3.35;;
57752;SDS011;43583;53.132;6.574;2023-11-22T03:55:47;7.78;;;3.05;;
57752;SDS011;43583;53.132;6.574;2023-11-22T03:58:14;5.47;;;2.28;;
57752;SDS011;43583;53.132;6.574;2023-11-22T04:00:40;8.65;;;2.90;;
57752;SDS011;43583;53.132;6.574;2023-11-22T04:03:06;6.05;;;2.55;;
57752;SDS011;43583;53.132;6.574;2023-11-22T04:05:32;7.65;;;3.75;;
57752;SDS011;43583;53.132;6.574;2023-11-22T04:07:57;7.18;;;2.65;;
57752;SDS011;43583;53.132;6.574;2023-11-22T04:10:23;7.63;;;3.25;;
57752;SDS011;43583;53.132;6.574;2023-11-22T04:12:49;9.48;;;3.30;;
57752;SDS011;43583;53.132;6.574;2023-11-22T04:15:14;7.53;;;2.42;;
57752;SDS011;43583;53.132;6.574;2023-11-22T04:17:41;8.77;;;2.45;;
57752;SDS011;43583;53.132;6.574;2023-11-22T04:20:07;5.43;;;2.97;;
57752;SDS011;43583;53.132;6.574;2023-11-22T04:22:43;8.52;;;2.55;;
57752;SDS011;43583;53.132;6.574;2023-11-22T04:25:12;7.18;;;3.30;;
57752;SDS011;43583;53.132;6.574;2023-11-22T04:27:41;5.45;;;2.70;;
57752;SDS011;43583;53.132;6.574;2023-11-22T04:30:07;4.22;;;1.77;;
57752;SDS011;43583;53.132;6.574;2023-11-22T04:32:38;5.00;;;2.35;;
57752;SDS011;43583;53.132;6.574;2023-11-22T04:35:03;4.72;;;1.80;;
57752;SDS011;43583;53.132;6.574;2023-11-22T04:37:30;5.05;;;1.83;;
57752;SDS011;43583;53.132;6.574;2023-11-22T04:39:57;7.20;;;1.90;;
57752;SDS011;43583;53.132;6.574;2023-11-22T04:42:26;6.03;;;2.47;;
57752;SDS011;43583;53.132;6.574;2023-11-22T04:44:53;6.28;;;2.45;;
57752;SDS011;43583;53.132;6.574;2023-11-22T04:47:19;5.10;;;1.95;;
57752;SDS011;43583;53.132;6.574;2023-11-22T04:49:46;8.73;;;2.50;;
57752;SDS011;43583;53.132;6.574;2023-11-22T04:52:12;6.10;;;1.65;;
57752;SDS011;43583;53.132;6.574;2023-11-22T04:54:38;5.05;;;2.67;;
57752;SDS011;43583;53.132;6.574;2023-11-22T04:57:04;5.57;;;2.42;;
57752;SDS011;43583;53.132;6.574;2023-11-22T04:59:30;6.85;;;1.42;;
57752;SDS011;43583;53.132;6.574;2023-11-22T05:01:56;8.57;;;2.90;;
57752;SDS011;43583;53.132;6.574;2023-11-22T05:04:22;5.30;;;2.47;;
57752;SDS011;43583;53.132;6.574;2023-11-22T05:06:48;8.70;;;3.15;;
57752;SDS011;43583;53.132;6.574;2023-11-22T05:09:13;9.48;;;3.63;;
57752;SDS011;43583;53.132;6.574;2023-11-22T05:11:39;9.45;;;2.85;;
57752;SDS011;43583;53.132;6.574;2023-11-22T05:14:09;8.55;;;2.58;;
57752;SDS011;43583;53.132;6.574;2023-11-22T05:16:35;4.75;;;2.17;;
57752;SDS011;43583;53.132;6.574;2023-11-22T05:19:01;6.60;;;1.85;;
57752;SDS011;43583;53.132;6.574;2023-11-22T05:21:26;5.28;;;2.13;;
57752;SDS011;43583;53.132;6.574;2023-11-22T05:23:52;6.55;;;2.97;;
57752;SDS011;43583;53.132;6.574;2023-11-22T05:26:19;5.72;;;2.03;;
57752;SDS011;43583;53.132;6.574;2023-11-22T05:28:47;5.72;;;2.38;;
57752;SDS011;43583;53.132;6.574;2023-11-22T05:31:13;11.40;;;3.63;;
57752;SDS011;43583;53.132;6.574;2023-11-22T05:33:39;6.20;;;2.67;;
57752;SDS011;43583;53.132;6.574;2023-11-22T05:36:05;7.18;;;3.10;;
57752;SDS011;43583;53.132;6.574;2023-11-22T05:38:31;15.70;;;3.45;;
57752;SDS011;43583;53.132;6.574;2023-11-22T05:40:58;7.80;;;3.10;;
57752;SDS011;43583;53.132;6.574;2023-11-22T05:43:25;11.75;;;3.35;;
57752;SDS011;43583;53.132;6.574;2023-11-22T05:45:52;14.43;;;2.80;;
57752;SDS011;43583;53.132;6.574;2023-11-22T05:48:18;8.32;;;2.33;;
57752;SDS011;43583;53.132;6.574;2023-11-22T05:50:44;9.52;;;3.00;;
57752;SDS011;43583;53.132;6.574;2023-11-22T05:53:10;7.88;;;2.67;;
57752;SDS011;43583;53.132;6.574;2023-11-22T05:55:36;10.43;;;2.25;;
57752;SDS011;43583;53.132;6.574;2023-11-22T05:58:02;6.75;;;3.03;;
57752;SDS011;43583;53.132;6.574;2023-11-22T06:00:28;7.65;;;3.08;;
57752;SDS011;43583;53.132;6.574;2023-11-22T06:02:54;7.57;;;3.65;;
57752;SDS011;43583;53.132;6.574;2023-11-22T06:05:20;10.45;;;3.88;;
57752;SDS011;43583;53.132;6.574;2023-11-22T06:07:46;20.35;;;4.55;;
57752;SDS011;43583;53.132;6.574;2023-11-22T06:10:15;32.17;;;4.47;;
57752;SDS011;43583;53.132;6.574;2023-11-22T06:12:41;12.80;;;3.00;;
57752;SDS011;43583;53.132;6.574;2023-11-22T06:15:06;8.68;;;3.70;;
57752;SDS011;43583;53.132;6.574;2023-11-22T06:17:33;8.88;;;2.92;;
57752;SDS011;43583;53.132;6.574;2023-11-22T06:19:58;8.52;;;2.88;;
57752;SDS011;43583;53.132;6.574;2023-11-22T06:22:24;5.80;;;3.10;;
57752;SDS011;43583;53.132;6.574;2023-11-22T06:24:49;6.40;;;2.42;;
57752;SDS011;43583;53.132;6.574;2023-11-22T06:27:15;7.47;;;2.72;;
57752;SDS011;43583;53.132;6.574;2023-11-22T06:29:41;8.45;;;3.40;;
57752;SDS011;43583;53.132;6.574;2023-11-22T06:32:09;11.27;;;3.92;;
57752;SDS011;43583;53.132;6.574;2023-11-22T06:34:35;8.32;;;3.40;;
57752;SDS011;43583;53.132;6.574;2023-11-22T06:37:01;10.35;;;3.85;;
57752;SDS011;43583;53.132;6.574;2023-11-22T06:39:27;11.80;;;3.38;;
57752;SDS011;43583;53.132;6.574;2023-11-22T06:41:53;9.13;;;3.60;;
57752;SDS011;43583;53.132;6.574;2023-11-22T06:44:18;8.93;;;4.25;;
57752;SDS011;43583;53.132;6.574;2023-11-22T06:46:44;10.05;;;4.68;;
57752;SDS011;43583;53.132;6.574;2023-11-22T06:49:09;9.15;;;4.22;;
57752;SDS011;43583;53.132;6.574;2023-11-22T06:51:35;11.93;;;5.35;;
57752;SDS011;43583;53.132;6.574;2023-11-22T06:54:00;12.10;;;4.93;;
57752;SDS011;43583;53.132;6.574;2023-11-22T06:56:26;11.55;;;4.93;;
57752;SDS011;43583;53.132;6.574;2023-11-22T06:58:52;12.93;;;4.65;;
57752;SDS011;43583;53.132;6.574;2023-11-22T07:01:21;9.95;;;4.85;;
57752;SDS011;43583;53.132;6.574;2023-11-22T07:03:48;12.43;;;4.85;;
57752;SDS011;43583;53.132;6.574;2023-11-22T07:06:14;17.02;;;5.38;;
57752;SDS011;43583;53.132;6.574;2023-11-22T07:08:40;15.80;;;6.57;;
57752;SDS011;43583;53.132;6.574;2023-11-22T07:11:05;16.90;;;6.78;;
57752;SDS011;43583;53.132;6.574;2023-11-22T07:13:34;13.93;;;6.78;;
57752;SDS011;43583;53.132;6.574;2023-11-22T07:16:03;14.98;;;6.38;;
57752;SDS011;43583;53.132;6.574;2023-11-22T07:18:29;21.73;;;8.55;;
57752;SDS011;43583;53.132;6.574;2023-11-22T07:20:56;22.10;;;8.50;;
57752;SDS011;43583;53.132;6.574;2023-11-22T07:23:21;22.42;;;9.27;;
57752;SDS011;43583;53.132;6.574;2023-11-22T07:25:52;22.27;;;8.55;;
57752;SDS011;43583;53.132;6.574;2023-11-22T07:28:17;22.15;;;10.02;;
57752;SDS011;43583;53.132;6.574;2023-11-22T07:30:44;23.13;;;9.00;;
57752;SDS011;43583;53.132;6.574;2023-11-22T07:33:09;28.10;;;10.65;;
57752;SDS011;43583;53.132;6.574;2023-11-22T07:35:36;23.20;;;10.55;;
57752;SDS011;43583;53.132;6.574;2023-11-22T07:38:01;26.30;;;9.93;;
57752;SDS011;43583;53.132;6.574;2023-11-22T07:40:28;24.45;;;9.48;;
57752;SDS011;43583;53.132;6.574;2023-11-22T07:42:54;26.25;;;10.95;;
57752;SDS011;43583;53.132;6.574;2023-11-22T07:45:19;26.92;;;10.38;;
57752;SDS011;43583;53.132;6.574;2023-11-22T07:47:45;31.67;;;10.85;;
57752;SDS011;43583;53.132;6.574;2023-11-22T07:50:12;29.20;;;10.23;;
57752;SDS011;43583;53.132;6.574;2023-11-22T07:52:37;29.35;;;10.70;;
57752;SDS011;43583;53.132;6.574;2023-11-22T07:55:05;28.13;;;10.15;;
57752;SDS011;43583;53.132;6.574;2023-11-22T07:57:33;27.27;;;10.50;;
57752;SDS011;43583;53.132;6.574;2023-11-22T07:59:59;27.23;;;10.55;;
57752;SDS011;43583;53.132;6.574;2023-11-22T08:02:26;31.85;;;12.45;;
57752;SDS011;43583;53.132;6.574;2023-11-22T08:04:52;28.38;;;10.38;;
57752;SDS011;43583;53.132;6.574;2023-11-22T08:07:18;28.65;;;11.10;;
57752;SDS011;43583;53.132;6.574;2023-11-22T08:09:43;30.65;;;10.88;;
57752;SDS011;43583;53.132;6.574;2023-11-22T08:12:09;24.98;;;10.30;;
57752;SDS011;43583;53.132;6.574;2023-11-22T08:14:36;29.60;;;12.30;;
57752;SDS011;43583;53.132;6.574;2023-11-22T08:17:02;27.17;;;11.75;;
57752;SDS011;43583;53.132;6.574;2023-11-22T08:19:28;29.08;;;11.13;;
57752;SDS011;43583;53.132;6.574;2023-11-22T08:21:54;27.30;;;11.18;;
57752;SDS011;43583;53.132;6.574;2023-11-22T08:24:20;30.45;;;11.20;;
57752;SDS011;43583;53.132;6.574;2023-11-22T08:26:46;27.55;;;11.27;;
57752;SDS011;43583;53.132;6.574;2023-11-22T08:29:11;25.23;;;10.05;;
57752;SDS011;43583;53.132;6.574;2023-11-22T08:31:39;32.60;;;11.05;;
57752;SDS011;43583;53.132;6.574;2023-11-22T08:34:05;25.38;;;11.32;;
57752;SDS011;43583;53.132;6.574;2023-11-22T08:36:31;26.98;;;11.98;;
57752;SDS011;43583;53.132;6.574;2023-11-22T08:39:00;28.33;;;11.38;;
57752;SDS011;43583;53.132;6.574;2023-11-22T08:41:30;29.65;;;10.63;;
57752;SDS011;43583;53.132;6.574;2023-11-22T08:43:57;30.42;;;12.23;;
57752;SDS011;43583;53.132;6.574;2023-11-22T08:46:22;26.83;;;10.85;;
57752;SDS011;43583;53.132;6.574;2023-11-22T08:48:49;28.77;;;11.43;;
57752;SDS011;43583;53.132;6.574;2023-11-22T08:51:15;27.02;;;11.07;;
57752;SDS011;43583;53.132;6.574;2023-11-22T08:53:42;27.88;;;11.00;;
57752;SDS011;43583;53.132;6.574;2023-11-22T08:56:09;26.02;;;10.23;;
57752;SDS011;43583;53.132;6.574;2023-11-22T08:58:36;31.75;;;12.45;;
57752;SDS011;43583;53.132;6.574;2023-11-22T09:01:05;24.88;;;11.00;;
57752;SDS011;43583;53.132;6.574;2023-11-22T09:03:31;25.60;;;11.20;;
57752;SDS011;43583;53.132;6.574;2023-11-22T09:05:57;24.48;;;11.02;;
57752;SDS011;43583;53.132;6.574;2023-11-22T09:08:23;27.60;;;9.98;;
57752;SDS011;43583;53.132;6.574;2023-11-22T09:10:49;27.83;;;11.20;;
57752;SDS011;43583;53.132;6.574;2023-11-22T09:13:15;25.38;;;10.20;;
57752;SDS011;43583;53.132;6.574;2023-11-22T09:15:41;24.95;;;10.65;;
57752;SDS011;43583;53.132;6.574;2023-11-22T09:18:09;26.20;;;10.07;;
57752;SDS011;43583;53.132;6.574;2023-11-22T09:20:37;29.63;;;11.98;;
57752;SDS011;43583;53.132;6.574;2023-11-22T09:23:03;25.70;;;10.23;;
57752;SDS011;43583;53.132;6.574;2023-11-22T09:25:29;22.02;;;10.02;;
57752;SDS011;43583;53.132;6.574;2023-11-22T09:27:56;24.98;;;10.73;;
57752;SDS011;43583;53.132;6.574;2023-11-22T09:30:26;24.63;;;9.95;;
57752;SDS011;43583;53.132;6.574;2023-11-22T09:33:11;27.55;;;10.82;;
57752;SDS011;43583;53.132;6.574;2023-11-22T09:35:39;22.42;;;10.93;;
57752;SDS011;43583;53.132;6.574;2023-11-22T09:38:06;25.27;;;10.65;;
57752;SDS011;43583;53.132;6.574;2023-11-22T09:40:36;21.35;;;10.43;;
57752;SDS011;43583;53.132;6.574;2023-11-22T09:43:09;24.80;;;9.65;;
57752;SDS011;43583;53.132;6.574;2023-11-22T09:45:35;22.55;;;9.52;;
57752;SDS011;43583;53.132;6.574;2023-11-22T09:48:03;25.33;;;11.38;;
57752;SDS011;43583;53.132;6.574;2023-11-22T09:53:19;24.80;;;10.50;;
57752;SDS011;43583;53.132;6.574;2023-11-22T09:56:07;23.35;;;9.80;;
57752;SDS011;43583;53.132;6.574;2023-11-22T09:58:35;22.52;;;9.70;;
57752;SDS011;43583;53.132;6.574;2023-11-22T10:01:04;21.80;;;9.07;;
57752;SDS011;43583;53.132;6.574;2023-11-22T10:03:30;24.83;;;10.63;;
57752;SDS011;43583;53.132;6.574;2023-11-22T10:05:56;24.98;;;10.32;;
57752;SDS011;43583;53.132;6.574;2023-11-22T10:08:24;22.92;;;10.48;;
57752;SDS011;43583;53.132;6.574;2023-11-22T10:10:54;20.83;;;10.18;;
57752;SDS011;43583;53.132;6.574;2023-11-22T10:13:20;18.88;;;9.00;;
57752;SDS011;43583;53.132;6.574;2023-11-22T10:15:47;23.65;;;9.57;;
57752;SDS011;43583;53.132;6.574;2023-11-22T10:18:13;21.23;;;8.95;;
57752;SDS011;43583;53.132;6.574;2023-11-22T10:20:40;25.33;;;9.88;;
57752;SDS011;43583;53.132;6.574;2023-11-22T10:23:10;25.42;;;10.32;;
57752;SDS011;43583;53.132;6.574;2023-11-22T10:25:43;22.70;;;9.45;;
57752;SDS011;43583;53.132;6.574;2023-11-22T10:28:10;21.52;;;9.25;;
57752;SDS011;43583;53.132;6.574;2023-11-22T10:30:36;22.10;;;8.88;;
57752;SDS011;43583;53.132;6.574;2023-11-22T10:33:02;21.55;;;9.52;;
57752;SDS011;43583;53.132;6.574;2023-11-22T10:35:28;22.88;;;10.45;;
57752;SDS011;43583;53.132;6.574;2023-11-22T10:37:54;19.60;;;8.73;;
57752;SDS011;43583;53.132;6.574;2023-11-22T10:40:20;21.52;;;8.85;;
57752;SDS011;43583;53.132;6.574;2023-11-22T10:42:45;19.13;;;8.95;;
57752;SDS011;43583;53.132;6.574;2023-11-22T10:45:17;20.38;;;9.35;;
57752;SDS011;43583;53.132;6.574;2023-11-22T10:47:43;23.40;;;9.45;;
57752;SDS011;43583;53.132;6.574;2023-11-22T10:50:10;18.00;;;8.25;;
57752;SDS011;43583;53.132;6.574;2023-11-22T10:52:37;16.17;;;7.32;;
57752;SDS011;43583;53.132;6.574;2023-11-22T10:55:06;14.90;;;6.93;;
57752;SDS011;43583;53.132;6.574;2023-11-22T10:57:34;15.93;;;7.45;;
57752;SDS011;43583;53.132;6.574;2023-11-22T11:00:05;12.20;;;7.05;;
57752;SDS011;43583;53.132;6.574;2023-11-22T11:02:33;16.92;;;7.63;;
57752;SDS011;43583;53.132;6.574;2023-11-22T11:05:07;17.83;;;7.40;;
57752;SDS011;43583;53.132;6.574;2023-11-22T11:07:48;14.10;;;6.43;;
57752;SDS011;43583;53.132;6.574;2023-11-22T11:10:19;12.60;;;6.35;;
57752;SDS011;43583;53.132;6.574;2023-11-22T11:12:46;12.73;;;6.43;;
57752;SDS011;43583;53.132;6.574;2023-11-22T11:15:12;14.07;;;7.13;;
57752;SDS011;43583;53.132;6.574;2023-11-22T11:17:39;11.15;;;5.78;;
57752;SDS011;43583;53.132;6.574;2023-11-22T11:20:06;11.77;;;5.75;;
57752;SDS011;43583;53.132;6.574;2023-11-22T11:22:32;11.43;;;6.15;;
57752;SDS011;43583;53.132;6.574;2023-11-22T11:25:04;10.35;;;5.18;;
57752;SDS011;43583;53.132;6.574;2023-11-22T11:27:34;10.13;;;5.28;;
57752;SDS011;43583;53.132;6.574;2023-11-22T11:33:08;8.93;;;4.65;;
57752;SDS011;43583;53.132;6.574;2023-11-22T11:35:38;6.80;;;3.92;;
57752;SDS011;43583;53.132;6.574;2023-11-22T11:38:06;9.82;;;5.00;;
57752;SDS011;43583;53.132;6.574;2023-11-22T11:40:34;7.95;;;2.97;;
57752;SDS011;43583;53.132;6.574;2023-11-22T11:43:01;6.85;;;3.97;;
57752;SDS011;43583;53.132;6.574;2023-11-22T11:45:27;6.25;;;3.67;;
57752;SDS011;43583;53.132;6.574;2023-11-22T11:47:53;6.45;;;3.53;;
57752;SDS011;43583;53.132;6.574;2023-11-22T11:50:20;6.05;;;2.70;;
57752;SDS011;43583;53.132;6.574;2023-11-22T11:52:47;4.55;;;2.55;;
57752;SDS011;43583;53.132;6.574;2023-11-22T11:55:13;6.50;;;3.25;;
57752;SDS011;43583;53.132;6.574;2023-11-22T11:57:38;5.72;;;3.42;;
57752;SDS011;43583;53.132;6.574;2023-11-22T12:00:07;5.05;;;3.20;;
57752;SDS011;43583;53.132;6.574;2023-11-22T12:02:34;4.07;;;1.90;;
57752;SDS011;43583;53.132;6.574;2023-11-22T12:05:00;5.70;;;2.63;;
57752;SDS011;43583;53.132;6.574;2023-11-22T12:07:31;6.25;;;2.92;;
57752;SDS011;43583;53.132;6.574;2023-11-22T12:09:57;4.88;;;2.70;;
57752;SDS011;43583;53.132;6.574;2023-11-22T12:12:22;3.33;;;2.05;;
57752;SDS011;43583;53.132;6.574;2023-11-22T12:14:48;3.78;;;2.38;;
57752;SDS011;43583;53.132;6.574;2023-11-22T12:17:14;6.93;;;3.05;;
57752;SDS011;43583;53.132;6.574;2023-11-22T12:19:41;6.22;;;2.53;;
57752;SDS011;43583;53.132;6.574;2023-11-22T12:22:07;5.70;;;2.53;;
57752;SDS011;43583;53.132;6.574;2023-11-22T12:24:33;5.80;;;3.00;;
57752;SDS011;43583;53.132;6.574;2023-11-22T12:26:59;5.43;;;2.95;;
57752;SDS011;43583;53.132;6.574;2023-11-22T12:29:25;4.57;;;2.65;;
57752;SDS011;43583;53.132;6.574;2023-11-22T12:31:51;4.78;;;2.40;;
57752;SDS011;43583;53.132;6.574;2023-11-22T12:34:18;6.82;;;3.10;;
57752;SDS011;43583;53.132;6.574;2023-11-22T12:36:45;5.50;;;2.20;;
57752;SDS011;43583;53.132;6.574;2023-11-22T12:39:12;3.63;;;2.65;;
57752;SDS011;43583;53.132;6.574;2023-11-22T12:41:42;4.80;;;2.65;;
57752;SDS011;43583;53.132;6.574;2023-11-22T12:44:10;4.30;;;2.65;;
57752;SDS011;43583;53.132;6.574;2023-11-22T12:46:48;7.43;;;2.70;;
57752;SDS011;43583;53.132;6.574;2023-11-22T12:49:26;6.15;;;2.55;;
57752;SDS011;43583;53.132;6.574;2023-11-22T12:51:53;5.72;;;2.80;;
57752;SDS011;43583;53.132;6.574;2023-11-22T12:54:19;4.47;;;3.10;;
57752;SDS011;43583;53.132;6.574;2023-11-22T12:56:52;6.05;;;3.50;;
57752;SDS011;43583;53.132;6.574;2023-11-22T12:59:24;4.85;;;3.00;;
57752;SDS011;43583;53.132;6.574;2023-11-22T13:01:52;5.07;;;2.28;;
57752;SDS011;43583;53.132;6.574;2023-11-22T13:04:19;6.07;;;3.20;;
57752;SDS011;43583;53.132;6.574;2023-11-22T13:06:45;5.25;;;2.83;;
57752;SDS011;43583;53.132;6.574;2023-11-22T13:09:10;6.13;;;3.75;;
57752;SDS011;43583;53.132;6.574;2023-11-22T13:11:43;4.53;;;2.17;;
57752;SDS011;43583;53.132;6.574;2023-11-22T13:14:09;5.88;;;3.17;;
57752;SDS011;43583;53.132;6.574;2023-11-22T13:16:35;6.20;;;3.50;;
57752;SDS011;43583;53.132;6.574;2023-11-22T13:19:02;5.35;;;2.72;;
57752;SDS011;43583;53.132;6.574;2023-11-22T13:21:29;6.28;;;2.60;;
57752;SDS011;43583;53.132;6.574;2023-11-22T13:23:54;4.35;;;2.80;;
57752;SDS011;43583;53.132;6.574;2023-11-22T13:26:21;5.03;;;3.15;;
57752;SDS011;43583;53.132;6.574;2023-11-22T13:28:46;7.15;;;2.85;;
57752;SDS011;43583;53.132;6.574;2023-11-22T13:31:12;6.20;;;2.90;;
57752;SDS011;43583;53.132;6.574;2023-11-22T13:33:38;6.32;;;2.88;;
57752;SDS011;43583;53.132;6.574;2023-11-22T13:36:04;4.90;;;3.08;;
57752;SDS011;43583;53.132;6.574;2023-11-22T13:38:30;5.45;;;3.10;;
57752;SDS011;43583;53.132;6.574;2023-11-22T13:40:55;5.57;;;2.78;;
57752;SDS011;43583;53.132;6.574;2023-11-22T13:43:21;5.72;;;3.42;;
57752;SDS011;43583;53.132;6.574;2023-11-22T13:45:46;5.72;;;2.75;;
57752;SDS011;43583;53.132;6.574;2023-11-22T13:48:12;8.38;;;3.58;;
57752;SDS011;43583;53.132;6.574;2023-11-22T13:50:38;5.85;;;4.20;;
57752;SDS011;43583;53.132;6.574;2023-11-22T13:53:03;9.15;;;2.90;;
57752;SDS011;43583;53.132;6.574;2023-11-22T13:55:29;6.95;;;3.20;;
57752;SDS011;43583;53.132;6.574;2023-11-22T13:57:56;5.80;;;3.50;;
57752;SDS011;43583;53.132;6.574;2023-11-22T14:00:23;6.35;;;3.03;;
57752;SDS011;43583;53.132;6.574;2023-11-22T14:02:55;7.10;;;3.97;;
57752;SDS011;43583;53.132;6.574;2023-11-22T14:05:30;4.90;;;2.75;;
57752;SDS011;43583;53.132;6.574;2023-11-22T14:07:56;7.20;;;3.55;;
57752;SDS011;43583;53.132;6.574;2023-11-22T14:10:22;7.30;;;3.83;;
57752;SDS011;43583;53.132;6.574;2023-11-22T14:12:48;6.75;;;4.10;;
57752;SDS011;43583;53.132;6.574;2023-11-22T14:15:14;8.82;;;3.67;;
57752;SDS011;43583;53.132;6.574;2023-11-22T14:17:40;7.15;;;4.15;;
57752;SDS011;43583;53.132;6.574;2023-11-22T14:20:07;10.05;;;4.32;;
57752;SDS011;43583;53.132;6.574;2023-11-22T14:22:36;7.30;;;3.97;;
57752;SDS011;43583;53.132;6.574;2023-11-22T14:25:02;8.90;;;3.85;;
57752;SDS011;43583;53.132;6.574;2023-11-22T14:27:32;8.02;;;4.05;;
57752;SDS011;43583;53.132;6.574;2023-11-22T14:29:58;9.40;;;4.63;;
57752;SDS011;43583;53.132;6.574;2023-11-22T14:32:25;7.57;;;4.30;;
57752;SDS011;43583;53.132;6.574;2023-11-22T14:34:50;5.03;;;3.50;;
57752;SDS011;43583;53.132;6.574;2023-11-22T14:37:18;7.43;;;4.10;;
57752;SDS011;43583;53.132;6.574;2023-11-22T14:39:44;8.98;;;3.97;;
57752;SDS011;43583;53.132;6.574;2023-11-22T14:42:10;8.02;;;4.13;;
57752;SDS011;43583;53.132;6.574;2023-11-22T14:44:36;7.93;;;4.15;;